createdAt,value
2023-04-02T00:00:01.408Z,0
2023-04-02T00:16:01.384Z,0
2023-04-02T00:31:01.474Z,0
2023-04-02T00:46:01.446Z,0
2023-04-02T01:00:01.361Z,0
2023-04-02T01:16:01.376Z,0
2023-04-02T01:31:01.412Z,0
2023-04-02T01:46:01.379Z,0
2023-04-02T02:00:01.328Z,0
2023-04-02T02:16:01.348Z,0
2023-04-02T02:31:01.401Z,0
2023-04-02T02:46:01.323Z,0
2023-04-02T03:00:01.366Z,0
2023-04-02T03:16:01.485Z,0
2023-04-02T03:31:01.426Z,0
2023-04-02T03:46:01.409Z,0
2023-04-02T04:00:01.423Z,0
2023-04-02T04:16:01.321Z,0
2023-04-02T04:31:01.327Z,0
2023-04-02T04:46:01.497Z,0
2023-04-02T05:00:01.349Z,5
2023-04-02T05:16:01.541Z,13
2023-04-02T05:31:01.385Z,50
2023-04-02T05:46:01.320Z,126
2023-04-02T06:00:01.339Z,204
2023-04-02T06:16:01.586Z,162
2023-04-02T06:31:01.341Z,138
2023-04-02T06:46:02.208Z,143
2023-04-02T07:00:01.351Z,170
2023-04-02T07:16:01.367Z,193
2023-04-02T07:31:01.342Z,235
2023-04-02T07:46:01.369Z,260
2023-04-02T08:00:01.314Z,274
2023-04-02T08:16:01.330Z,330
2023-04-02T08:31:01.304Z,441
2023-04-02T08:46:01.374Z,456
2023-04-02T09:00:01.412Z,554
2023-04-02T09:16:01.700Z,558
2023-04-02T09:31:05.502Z,591
2023-04-02T09:46:00.488Z,568
2023-04-02T10:00:01.825Z,608
2023-04-02T10:16:02.845Z,679
2023-04-02T10:31:04.357Z,911
2023-04-02T10:46:00.141Z,585
2023-04-02T11:00:01.264Z,510
2023-04-02T11:16:02.286Z,456
2023-04-02T11:31:03.300Z,691
2023-04-02T11:46:04.094Z,549
2023-04-02T11:59:59.967Z,708
2023-04-02T12:16:00.952Z,796
2023-04-02T12:31:01.691Z,564
2023-04-02T12:46:02.845Z,169
2023-04-02T13:00:03.464Z,342
2023-04-02T13:16:04.199Z,436
2023-04-02T13:30:59.961Z,600
2023-04-02T13:46:00.801Z,460
2023-04-02T14:00:15.170Z,665
2023-04-02T14:16:02.529Z,581
2023-04-02T14:31:03.628Z,302
2023-04-02T14:46:04.628Z,445
2023-04-02T15:00:00.627Z,453
2023-04-02T15:16:01.687Z,307
2023-04-02T15:31:13.697Z,394
2023-04-02T15:46:03.621Z,136
2023-04-02T15:59:59.596Z,97
2023-04-02T16:16:00.526Z,96
2023-04-02T16:31:01.349Z,65
2023-04-02T16:46:02.405Z,51
2023-04-02T17:00:03.168Z,38
2023-04-02T17:16:04.432Z,20
2023-04-02T17:31:00.258Z,7
2023-04-02T17:46:01.415Z,0
2023-04-02T18:00:02.122Z,0
2023-04-02T18:16:03.218Z,0
2023-04-02T18:31:04.270Z,0
2023-04-02T18:46:00.186Z,0
2023-04-02T19:00:00.987Z,0
2023-04-02T19:16:02.157Z,0
2023-04-02T19:31:03.058Z,0
2023-04-02T19:46:03.696Z,0
2023-04-02T20:00:04.568Z,0
2023-04-02T20:16:00.368Z,0
2023-04-02T20:31:01.418Z,0
2023-04-02T20:46:02.308Z,0
2023-04-02T21:00:02.909Z,0
2023-04-02T21:16:03.764Z,0
2023-04-02T21:31:04.573Z,0
2023-04-02T21:46:00.291Z,0
2023-04-02T22:00:00.982Z,0
2023-04-02T22:16:02.032Z,0
2023-04-02T22:31:03.171Z,0
2023-04-02T22:46:06.539Z,0
2023-04-02T22:59:59.962Z,0
2023-04-02T23:16:01.106Z,0
2023-04-02T23:31:01.935Z,0
2023-04-02T23:46:02.885Z,0
